sensor_id;sensor_type;location;lat;lon;timestamp;P1;durP1;ratioP1;P2;durP2;ratioP2
46729;SDS011;32476;50.002;11.854;2023-05-29T00:01:53;6.57;;;3.30;;
46729;SDS011;32476;50.002;11.854;2023-05-29T00:04:19;6.57;;;2.87;;
46729;SDS011;32476;50.002;11.854;2023-05-29T00:06:46;5.93;;;2.97;;
46729;SDS011;32476;50.002;11.854;2023-05-29T00:09:14;7.47;;;3.17;;
46729;SDS011;32476;50.002;11.854;2023-05-29T00:11:40;6.03;;;3.03;;
46729;SDS011;32476;50.002;11.854;2023-05-29T00:14:06;5.10;;;2.53;;
46729;SDS011;32476;50.002;11.854;2023-05-29T00:16:33;7.40;;;3.10;;
46729;SDS011;32476;50.002;11.854;2023-05-29T00:18:59;7.13;;;3.13;;
46729;SDS011;32476;50.002;11.854;2023-05-29T00:21:25;4.17;;;2.70;;
46729;SDS011;32476;50.002;11.854;2023-05-29T00:23:52;6.60;;;3.10;;
46729;SDS011;32476;50.002;11.854;2023-05-29T00:26:18;5.57;;;2.77;;
46729;SDS011;32476;50.002;11.854;2023-05-29T00:28:44;9.57;;;5.10;;
46729;SDS011;32476;50.002;11.854;2023-05-29T00:31:11;7.53;;;3.27;;
46729;SDS011;32476;50.002;11.854;2023-05-29T00:33:37;7.47;;;3.20;;
46729;SDS011;32476;50.002;11.854;2023-05-29T00:36:03;6.20;;;3.30;;
46729;SDS011;32476;50.002;11.854;2023-05-29T00:38:30;7.30;;;3.10;;
46729;SDS011;32476;50.002;11.854;2023-05-29T00:40:56;5.63;;;2.90;;
46729;SDS011;32476;50.002;11.854;2023-05-29T00:43:24;11.83;;;3.07;;
46729;SDS011;32476;50.002;11.854;2023-05-29T00:45:51;5.43;;;2.90;;
46729;SDS011;32476;50.002;11.854;2023-05-29T00:48:17;9.07;;;3.40;;
46729;SDS011;32476;50.002;11.854;2023-05-29T00:50:43;10.07;;;3.00;;
46729;SDS011;32476;50.002;11.854;2023-05-29T00:53:10;5.03;;;3.30;;
46729;SDS011;32476;50.002;11.854;2023-05-29T00:55:36;5.63;;;3.33;;
46729;SDS011;32476;50.002;11.854;2023-05-29T00:58:03;6.67;;;3.30;;
46729;SDS011;32476;50.002;11.854;2023-05-29T01:00:32;8.37;;;4.10;;
46729;SDS011;32476;50.002;11.854;2023-05-29T01:02:59;8.67;;;3.13;;
46729;SDS011;32476;50.002;11.854;2023-05-29T01:05:30;6.07;;;2.93;;
46729;SDS011;32476;50.002;11.854;2023-05-29T01:08:00;6.87;;;3.20;;
46729;SDS011;32476;50.002;11.854;2023-05-29T01:10:26;5.03;;;3.13;;
46729;SDS011;32476;50.002;11.854;2023-05-29T01:12:57;10.33;;;4.07;;
46729;SDS011;32476;50.002;11.854;2023-05-29T01:21:18;5.97;;;2.97;;
46729;SDS011;32476;50.002;11.854;2023-05-29T01:27:08;5.77;;;3.10;;
46729;SDS011;32476;50.002;11.854;2023-05-29T01:29:35;6.90;;;3.20;;
46729;SDS011;32476;50.002;11.854;2023-05-29T01:32:04;6.47;;;3.43;;
46729;SDS011;32476;50.002;11.854;2023-05-29T01:34:32;5.40;;;2.93;;
46729;SDS011;32476;50.002;11.854;2023-05-29T01:36:58;7.63;;;3.40;;
46729;SDS011;32476;50.002;11.854;2023-05-29T01:39:24;6.70;;;3.33;;
46729;SDS011;32476;50.002;11.854;2023-05-29T01:41:52;7.23;;;3.20;;
46729;SDS011;32476;50.002;11.854;2023-05-29T01:44:19;8.50;;;3.27;;
46729;SDS011;32476;50.002;11.854;2023-05-29T01:46:46;7.30;;;3.07;;
46729;SDS011;32476;50.002;11.854;2023-05-29T01:49:15;5.87;;;3.57;;
46729;SDS011;32476;50.002;11.854;2023-05-29T01:51:42;6.77;;;3.50;;
46729;SDS011;32476;50.002;11.854;2023-05-29T01:54:08;5.53;;;3.40;;
46729;SDS011;32476;50.002;11.854;2023-05-29T01:56:36;6.70;;;3.43;;
46729;SDS011;32476;50.002;11.854;2023-05-29T01:59:02;6.43;;;3.77;;
46729;SDS011;32476;50.002;11.854;2023-05-29T02:01:29;7.10;;;3.17;;
46729;SDS011;32476;50.002;11.854;2023-05-29T02:03:57;5.23;;;2.87;;
46729;SDS011;32476;50.002;11.854;2023-05-29T02:06:23;8.07;;;3.30;;
46729;SDS011;32476;50.002;11.854;2023-05-29T02:08:49;10.03;;;3.00;;
46729;SDS011;32476;50.002;11.854;2023-05-29T02:11:17;6.10;;;3.30;;
46729;SDS011;32476;50.002;11.854;2023-05-29T02:13:43;9.07;;;3.50;;
46729;SDS011;32476;50.002;11.854;2023-05-29T02:16:08;7.47;;;2.90;;
46729;SDS011;32476;50.002;11.854;2023-05-29T02:18:36;5.90;;;3.27;;
46729;SDS011;32476;50.002;11.854;2023-05-29T02:21:02;8.57;;;3.00;;
46729;SDS011;32476;50.002;11.854;2023-05-29T02:23:27;6.97;;;3.13;;
46729;SDS011;32476;50.002;11.854;2023-05-29T02:25:55;7.17;;;3.00;;
46729;SDS011;32476;50.002;11.854;2023-05-29T02:28:21;7.50;;;3.13;;
46729;SDS011;32476;50.002;11.854;2023-05-29T02:30:46;10.47;;;3.43;;
46729;SDS011;32476;50.002;11.854;2023-05-29T02:33:14;6.50;;;3.23;;
46729;SDS011;32476;50.002;11.854;2023-05-29T02:35:40;6.63;;;4.10;;
46729;SDS011;32476;50.002;11.854;2023-05-29T02:38:05;7.63;;;3.73;;
46729;SDS011;32476;50.002;11.854;2023-05-29T02:40:33;5.53;;;3.17;;
46729;SDS011;32476;50.002;11.854;2023-05-29T02:42:58;7.17;;;3.30;;
46729;SDS011;32476;50.002;11.854;2023-05-29T02:45:24;4.23;;;3.07;;
46729;SDS011;32476;50.002;11.854;2023-05-29T02:47:52;8.13;;;3.33;;
46729;SDS011;32476;50.002;11.854;2023-05-29T02:50:17;7.63;;;3.97;;
46729;SDS011;32476;50.002;11.854;2023-05-29T02:52:43;10.20;;;3.40;;
46729;SDS011;32476;50.002;11.854;2023-05-29T02:55:11;6.83;;;3.37;;
46729;SDS011;32476;50.002;11.854;2023-05-29T02:57:37;7.37;;;3.27;;
46729;SDS011;32476;50.002;11.854;2023-05-29T03:00:03;6.97;;;3.40;;
46729;SDS011;32476;50.002;11.854;2023-05-29T03:02:34;7.93;;;3.57;;
46729;SDS011;32476;50.002;11.854;2023-05-29T03:05:00;6.77;;;3.17;;
46729;SDS011;32476;50.002;11.854;2023-05-29T03:07:26;6.80;;;3.30;;
46729;SDS011;32476;50.002;11.854;2023-05-29T03:09:54;7.97;;;2.90;;
46729;SDS011;32476;50.002;11.854;2023-05-29T03:12:20;11.57;;;3.50;;
46729;SDS011;32476;50.002;11.854;2023-05-29T03:14:46;10.77;;;3.20;;
46729;SDS011;32476;50.002;11.854;2023-05-29T03:17:13;7.63;;;3.17;;
46729;SDS011;32476;50.002;11.854;2023-05-29T03:19:39;6.57;;;3.20;;
46729;SDS011;32476;50.002;11.854;2023-05-29T03:22:05;8.47;;;3.33;;
46729;SDS011;32476;50.002;11.854;2023-05-29T03:24:32;6.37;;;3.23;;
46729;SDS011;32476;50.002;11.854;2023-05-29T03:27:00;7.73;;;3.37;;
46729;SDS011;32476;50.002;11.854;2023-05-29T03:29:28;5.13;;;3.30;;
46729;SDS011;32476;50.002;11.854;2023-05-29T03:31:56;5.47;;;3.10;;
46729;SDS011;32476;50.002;11.854;2023-05-29T03:34:22;8.87;;;2.77;;
46729;SDS011;32476;50.002;11.854;2023-05-29T03:36:48;6.60;;;3.37;;
46729;SDS011;32476;50.002;11.854;2023-05-29T03:39:16;7.20;;;2.83;;
46729;SDS011;32476;50.002;11.854;2023-05-29T03:41:41;9.30;;;2.73;;
46729;SDS011;32476;50.002;11.854;2023-05-29T03:44:07;8.70;;;3.30;;
46729;SDS011;32476;50.002;11.854;2023-05-29T03:46:35;5.97;;;3.00;;
46729;SDS011;32476;50.002;11.854;2023-05-29T03:49:01;7.27;;;3.13;;
46729;SDS011;32476;50.002;11.854;2023-05-29T03:51:26;6.80;;;3.07;;
46729;SDS011;32476;50.002;11.854;2023-05-29T03:53:54;4.83;;;3.10;;
46729;SDS011;32476;50.002;11.854;2023-05-29T03:56:19;7.90;;;3.17;;
46729;SDS011;32476;50.002;11.854;2023-05-29T03:58:46;10.07;;;3.00;;
46729;SDS011;32476;50.002;11.854;2023-05-29T04:01:14;6.77;;;3.13;;
46729;SDS011;32476;50.002;11.854;2023-05-29T04:03:40;9.60;;;3.50;;
46729;SDS011;32476;50.002;11.854;2023-05-29T04:06:06;6.80;;;3.00;;
46729;SDS011;32476;50.002;11.854;2023-05-29T04:08:33;6.00;;;3.40;;
46729;SDS011;32476;50.002;11.854;2023-05-29T04:10:59;7.33;;;3.20;;
46729;SDS011;32476;50.002;11.854;2023-05-29T04:13:25;5.77;;;2.73;;
46729;SDS011;32476;50.002;11.854;2023-05-29T04:15:52;8.10;;;3.53;;
46729;SDS011;32476;50.002;11.854;2023-05-29T04:18:19;5.63;;;3.07;;
46729;SDS011;32476;50.002;11.854;2023-05-29T04:20:45;8.20;;;3.23;;
46729;SDS011;32476;50.002;11.854;2023-05-29T04:23:13;5.40;;;3.00;;
46729;SDS011;32476;50.002;11.854;2023-05-29T04:25:39;4.63;;;3.43;;
46729;SDS011;32476;50.002;11.854;2023-05-29T04:28:05;6.97;;;3.27;;
46729;SDS011;32476;50.002;11.854;2023-05-29T04:30:33;6.40;;;4.00;;
46729;SDS011;32476;50.002;11.854;2023-05-29T04:32:58;7.80;;;3.00;;
46729;SDS011;32476;50.002;11.854;2023-05-29T04:35:24;8.63;;;3.40;;
46729;SDS011;32476;50.002;11.854;2023-05-29T04:37:51;6.63;;;3.10;;
46729;SDS011;32476;50.002;11.854;2023-05-29T04:40:18;5.77;;;3.40;;
46729;SDS011;32476;50.002;11.854;2023-05-29T04:42:46;6.13;;;3.70;;
46729;SDS011;32476;50.002;11.854;2023-05-29T04:45:14;7.10;;;3.83;;
46729;SDS011;32476;50.002;11.854;2023-05-29T04:47:39;11.30;;;4.10;;
46729;SDS011;32476;50.002;11.854;2023-05-29T04:50:17;8.40;;;5.23;;
46729;SDS011;32476;50.002;11.854;2023-05-29T04:52:44;15.97;;;6.57;;
46729;SDS011;32476;50.002;11.854;2023-05-29T04:55:10;21.07;;;7.90;;
46729;SDS011;32476;50.002;11.854;2023-05-29T04:57:37;21.20;;;11.77;;
46729;SDS011;32476;50.002;11.854;2023-05-29T05:00:04;15.70;;;8.03;;
46729;SDS011;32476;50.002;11.854;2023-05-29T05:02:34;16.57;;;8.77;;
46729;SDS011;32476;50.002;11.854;2023-05-29T05:04:59;18.30;;;8.23;;
46729;SDS011;32476;50.002;11.854;2023-05-29T05:07:27;12.80;;;7.63;;
46729;SDS011;32476;50.002;11.854;2023-05-29T05:09:52;10.13;;;5.60;;
46729;SDS011;32476;50.002;11.854;2023-05-29T05:12:18;11.27;;;6.10;;
46729;SDS011;32476;50.002;11.854;2023-05-29T05:14:46;8.40;;;4.90;;
46729;SDS011;32476;50.002;11.854;2023-05-29T05:17:12;9.73;;;5.37;;
46729;SDS011;32476;50.002;11.854;2023-05-29T05:19:37;8.40;;;5.27;;
46729;SDS011;32476;50.002;11.854;2023-05-29T05:22:05;10.73;;;5.40;;
46729;SDS011;32476;50.002;11.854;2023-05-29T05:24:30;9.23;;;5.33;;
46729;SDS011;32476;50.002;11.854;2023-05-29T05:26:57;6.00;;;4.27;;
46729;SDS011;32476;50.002;11.854;2023-05-29T05:29:24;8.20;;;4.47;;
46729;SDS011;32476;50.002;11.854;2023-05-29T05:31:50;6.53;;;3.50;;
46729;SDS011;32476;50.002;11.854;2023-05-29T05:34:16;10.67;;;4.73;;
46729;SDS011;32476;50.002;11.854;2023-05-29T05:36:43;7.07;;;2.87;;
46729;SDS011;32476;50.002;11.854;2023-05-29T05:39:09;5.27;;;2.63;;
46729;SDS011;32476;50.002;11.854;2023-05-29T05:41:35;5.00;;;2.60;;
46729;SDS011;32476;50.002;11.854;2023-05-29T05:44:02;8.00;;;2.97;;
46729;SDS011;32476;50.002;11.854;2023-05-29T05:46:28;6.53;;;2.70;;
46729;SDS011;32476;50.002;11.854;2023-05-29T05:48:54;6.30;;;2.63;;
46729;SDS011;32476;50.002;11.854;2023-05-29T05:51:24;6.87;;;2.80;;
46729;SDS011;32476;50.002;11.854;2023-05-29T05:53:50;5.83;;;3.20;;
46729;SDS011;32476;50.002;11.854;2023-05-29T05:56:16;6.20;;;2.90;;
46729;SDS011;32476;50.002;11.854;2023-05-29T05:58:43;5.00;;;3.13;;
46729;SDS011;32476;50.002;11.854;2023-05-29T06:01:09;4.77;;;2.67;;
46729;SDS011;32476;50.002;11.854;2023-05-29T06:03:35;5.63;;;2.83;;
46729;SDS011;32476;50.002;11.854;2023-05-29T06:06:04;7.40;;;2.93;;
46729;SDS011;32476;50.002;11.854;2023-05-29T06:08:30;5.37;;;2.90;;
46729;SDS011;32476;50.002;11.854;2023-05-29T06:10:56;5.30;;;2.80;;
46729;SDS011;32476;50.002;11.854;2023-05-29T06:13:23;6.37;;;3.33;;
46729;SDS011;32476;50.002;11.854;2023-05-29T06:15:49;7.63;;;3.10;;
46729;SDS011;32476;50.002;11.854;2023-05-29T06:18:15;5.57;;;3.20;;
46729;SDS011;32476;50.002;11.854;2023-05-29T06:20:42;6.77;;;2.97;;
46729;SDS011;32476;50.002;11.854;2023-05-29T06:23:08;5.37;;;2.60;;
46729;SDS011;32476;50.002;11.854;2023-05-29T06:25:34;6.87;;;2.77;;
46729;SDS011;32476;50.002;11.854;2023-05-29T06:28:01;5.47;;;2.80;;
46729;SDS011;32476;50.002;11.854;2023-05-29T06:30:27;4.97;;;2.40;;
46729;SDS011;32476;50.002;11.854;2023-05-29T06:32:53;6.27;;;2.80;;
46729;SDS011;32476;50.002;11.854;2023-05-29T06:35:21;5.70;;;3.10;;
46729;SDS011;32476;50.002;11.854;2023-05-29T06:37:47;6.90;;;3.00;;
46729;SDS011;32476;50.002;11.854;2023-05-29T06:40:13;10.53;;;3.27;;
46729;SDS011;32476;50.002;11.854;2023-05-29T06:42:42;5.97;;;2.90;;
46729;SDS011;32476;50.002;11.854;2023-05-29T06:45:11;4.33;;;2.80;;
46729;SDS011;32476;50.002;11.854;2023-05-29T06:47:41;7.07;;;3.03;;
46729;SDS011;32476;50.002;11.854;2023-05-29T06:50:07;3.70;;;2.87;;
46729;SDS011;32476;50.002;11.854;2023-05-29T06:52:34;6.60;;;2.60;;
46729;SDS011;32476;50.002;11.854;2023-05-29T06:55:01;8.70;;;2.90;;
46729;SDS011;32476;50.002;11.854;2023-05-29T06:57:27;8.27;;;3.10;;
46729;SDS011;32476;50.002;11.854;2023-05-29T06:59:53;5.80;;;2.83;;
46729;SDS011;32476;50.002;11.854;2023-05-29T07:02:21;6.07;;;2.80;;
46729;SDS011;32476;50.002;11.854;2023-05-29T07:04:46;8.57;;;2.87;;
46729;SDS011;32476;50.002;11.854;2023-05-29T07:07:12;4.20;;;2.70;;
46729;SDS011;32476;50.002;11.854;2023-05-29T07:09:39;8.37;;;3.60;;
46729;SDS011;32476;50.002;11.854;2023-05-29T07:12:05;7.07;;;3.77;;
46729;SDS011;32476;50.002;11.854;2023-05-29T07:14:31;4.43;;;2.93;;
46729;SDS011;32476;50.002;11.854;2023-05-29T07:16:58;4.75;;;2.80;;
46729;SDS011;32476;50.002;11.854;2023-05-29T07:19:24;11.60;;;3.65;;
46729;SDS011;32476;50.002;11.854;2023-05-29T07:21:50;8.05;;;2.92;;
46729;SDS011;32476;50.002;11.854;2023-05-29T07:24:17;8.83;;;3.50;;
46729;SDS011;32476;50.002;11.854;2023-05-29T07:26:43;5.18;;;2.75;;
46729;SDS011;32476;50.002;11.854;2023-05-29T07:29:09;7.40;;;3.00;;
46729;SDS011;32476;50.002;11.854;2023-05-29T07:31:36;6.07;;;3.20;;
46729;SDS011;32476;50.002;11.854;2023-05-29T07:34:05;7.65;;;3.70;;
46729;SDS011;32476;50.002;11.854;2023-05-29T07:36:31;6.75;;;3.55;;
46729;SDS011;32476;50.002;11.854;2023-05-29T07:38:58;8.88;;;3.67;;
46729;SDS011;32476;50.002;11.854;2023-05-29T07:41:24;6.82;;;3.10;;
46729;SDS011;32476;50.002;11.854;2023-05-29T07:43:54;6.07;;;2.85;;
46729;SDS011;32476;50.002;11.854;2023-05-29T07:46:22;4.80;;;3.00;;
46729;SDS011;32476;50.002;11.854;2023-05-29T07:48:48;7.47;;;2.70;;
46729;SDS011;32476;50.002;11.854;2023-05-29T07:51:13;6.97;;;2.80;;
46729;SDS011;32476;50.002;11.854;2023-05-29T07:53:43;5.78;;;3.35;;
46729;SDS011;32476;50.002;11.854;2023-05-29T07:56:10;6.57;;;2.97;;
46729;SDS011;32476;50.002;11.854;2023-05-29T07:58:36;5.97;;;2.63;;
46729;SDS011;32476;50.002;11.854;2023-05-29T08:01:03;5.95;;;3.28;;
46729;SDS011;32476;50.002;11.854;2023-05-29T08:03:30;9.30;;;2.58;;
46729;SDS011;32476;50.002;11.854;2023-05-29T08:05:56;4.13;;;2.83;;
46729;SDS011;32476;50.002;11.854;2023-05-29T08:08:23;4.80;;;2.90;;
46729;SDS011;32476;50.002;11.854;2023-05-29T08:10:49;9.90;;;3.05;;
46729;SDS011;32476;50.002;11.854;2023-05-29T08:13:15;11.05;;;2.47;;
46729;SDS011;32476;50.002;11.854;2023-05-29T08:15:43;7.15;;;2.83;;
46729;SDS011;32476;50.002;11.854;2023-05-29T08:18:08;4.30;;;2.70;;
46729;SDS011;32476;50.002;11.854;2023-05-29T08:20:35;4.60;;;2.63;;
46729;SDS011;32476;50.002;11.854;2023-05-29T08:23:02;10.57;;;5.30;;
46729;SDS011;32476;50.002;11.854;2023-05-29T08:25:28;6.88;;;3.33;;
46729;SDS011;32476;50.002;11.854;2023-05-29T08:27:53;4.75;;;3.00;;
46729;SDS011;32476;50.002;11.854;2023-05-29T08:30:21;8.65;;;3.10;;
46729;SDS011;32476;50.002;11.854;2023-05-29T08:32:47;4.15;;;2.83;;
46729;SDS011;32476;50.002;11.854;2023-05-29T08:35:12;4.60;;;2.67;;
46729;SDS011;32476;50.002;11.854;2023-05-29T08:37:40;7.43;;;3.13;;
46729;SDS011;32476;50.002;11.854;2023-05-29T08:40:06;3.22;;;2.25;;
46729;SDS011;32476;50.002;11.854;2023-05-29T08:42:36;6.97;;;2.20;;
46729;SDS011;32476;50.002;11.854;2023-05-29T08:45:07;11.68;;;2.83;;
46729;SDS011;32476;50.002;11.854;2023-05-29T08:47:36;5.20;;;2.72;;
46729;SDS011;32476;50.002;11.854;2023-05-29T08:50:07;5.97;;;2.40;;
46729;SDS011;32476;50.002;11.854;2023-05-29T08:52:34;5.28;;;2.58;;
46729;SDS011;32476;50.002;11.854;2023-05-29T08:55:03;6.25;;;2.80;;
46729;SDS011;32476;50.002;11.854;2023-05-29T08:57:32;4.13;;;2.20;;
46729;SDS011;32476;50.002;11.854;2023-05-29T08:59:59;8.10;;;2.70;;
46729;SDS011;32476;50.002;11.854;2023-05-29T09:02:26;5.95;;;2.70;;
46729;SDS011;32476;50.002;11.854;2023-05-29T09:04:53;5.45;;;2.53;;
46729;SDS011;32476;50.002;11.854;2023-05-29T09:07:21;6.22;;;2.38;;
46729;SDS011;32476;50.002;11.854;2023-05-29T09:09:48;4.28;;;2.28;;
46729;SDS011;32476;50.002;11.854;2023-05-29T09:12:15;3.70;;;2.72;;
46729;SDS011;32476;50.002;11.854;2023-05-29T09:14:42;5.28;;;2.60;;
46729;SDS011;32476;50.002;11.854;2023-05-29T09:17:10;2.88;;;2.42;;
46729;SDS011;32476;50.002;11.854;2023-05-29T09:19:38;6.10;;;2.35;;
46729;SDS011;32476;50.002;11.854;2023-05-29T09:22:07;4.47;;;2.47;;
46729;SDS011;32476;50.002;11.854;2023-05-29T09:24:35;6.45;;;2.13;;
46729;SDS011;32476;50.002;11.854;2023-05-29T09:27:04;9.15;;;2.85;;
46729;SDS011;32476;50.002;11.854;2023-05-29T09:29:33;3.70;;;2.55;;
46729;SDS011;32476;50.002;11.854;2023-05-29T09:34:34;4.65;;;2.35;;
46729;SDS011;32476;50.002;11.854;2023-05-29T09:37:04;4.25;;;2.28;;
46729;SDS011;32476;50.002;11.854;2023-05-29T09:39:49;6.47;;;2.58;;
46729;SDS011;32476;50.002;11.854;2023-05-29T09:42:19;5.57;;;2.67;;
46729;SDS011;32476;50.002;11.854;2023-05-29T09:44:49;3.95;;;2.38;;
46729;SDS011;32476;50.002;11.854;2023-05-29T09:47:18;4.13;;;2.60;;
46729;SDS011;32476;50.002;11.854;2023-05-29T09:49:46;7.20;;;3.65;;
46729;SDS011;32476;50.002;11.854;2023-05-29T09:52:12;10.95;;;2.72;;
46729;SDS011;32476;50.002;11.854;2023-05-29T09:54:39;3.08;;;2.50;;
46729;SDS011;32476;50.002;11.854;2023-05-29T09:57:09;4.45;;;2.25;;
46729;SDS011;32476;50.002;11.854;2023-05-29T09:59:35;9.38;;;2.90;;
46729;SDS011;32476;50.002;11.854;2023-05-29T10:02:03;4.25;;;2.45;;
46729;SDS011;32476;50.002;11.854;2023-05-29T10:04:31;8.50;;;2.60;;
46729;SDS011;32476;50.002;11.854;2023-05-29T10:07:04;22.33;;;3.22;;
46729;SDS011;32476;50.002;11.854;2023-05-29T10:09:41;10.52;;;2.67;;
46729;SDS011;32476;50.002;11.854;2023-05-29T10:12:08;25.13;;;4.28;;
46729;SDS011;32476;50.002;11.854;2023-05-29T10:14:38;7.55;;;2.60;;
46729;SDS011;32476;50.002;11.854;2023-05-29T10:17:07;7.32;;;2.03;;
46729;SDS011;32476;50.002;11.854;2023-05-29T10:19:38;10.05;;;2.40;;
46729;SDS011;32476;50.002;11.854;2023-05-29T10:22:04;7.15;;;2.67;;
46729;SDS011;32476;50.002;11.854;2023-05-29T10:24:31;4.88;;;2.35;;
46729;SDS011;32476;50.002;11.854;2023-05-29T10:26:59;12.68;;;2.75;;
46729;SDS011;32476;50.002;11.854;2023-05-29T10:29:31;5.80;;;2.80;;
46729;SDS011;32476;50.002;11.854;2023-05-29T10:32:29;7.43;;;3.90;;
46729;SDS011;32476;50.002;11.854;2023-05-29T10:37:52;6.32;;;2.83;;
46729;SDS011;32476;50.002;11.854;2023-05-29T10:40:26;4.15;;;2.80;;
46729;SDS011;32476;50.002;11.854;2023-05-29T10:42:54;5.43;;;2.60;;
46729;SDS011;32476;50.002;11.854;2023-05-29T10:53:10;7.60;;;2.53;;
46729;SDS011;32476;50.002;11.854;2023-05-29T10:55:40;10.93;;;2.80;;
46729;SDS011;32476;50.002;11.854;2023-05-29T10:58:08;4.50;;;2.78;;
46729;SDS011;32476;50.002;11.854;2023-05-29T11:00:47;9.13;;;2.40;;
46729;SDS011;32476;50.002;11.854;2023-05-29T11:03:15;4.70;;;2.47;;
46729;SDS011;32476;50.002;11.854;2023-05-29T11:08:47;7.00;;;2.90;;
46729;SDS011;32476;50.002;11.854;2023-05-29T11:11:29;5.47;;;2.95;;
46729;SDS011;32476;50.002;11.854;2023-05-29T11:14:03;6.90;;;2.83;;
46729;SDS011;32476;50.002;11.854;2023-05-29T11:18:57;7.65;;;2.95;;
46729;SDS011;32476;50.002;11.854;2023-05-29T11:23:55;3.05;;;2.55;;
46729;SDS011;32476;50.002;11.854;2023-05-29T11:26:25;12.57;;;3.13;;
46729;SDS011;32476;50.002;11.854;2023-05-29T11:28:56;4.03;;;2.90;;
46729;SDS011;32476;50.002;11.854;2023-05-29T11:31:23;5.32;;;2.60;;
46729;SDS011;32476;50.002;11.854;2023-05-29T11:33:51;18.45;;;3.60;;
46729;SDS011;32476;50.002;11.854;2023-05-29T11:36:21;4.93;;;3.33;;
46729;SDS011;32476;50.002;11.854;2023-05-29T11:38:47;7.40;;;2.88;;
46729;SDS011;32476;50.002;11.854;2023-05-29T11:41:13;5.63;;;2.83;;
46729;SDS011;32476;50.002;11.854;2023-05-29T11:43:43;4.43;;;2.75;;
46729;SDS011;32476;50.002;11.854;2023-05-29T11:46:19;7.53;;;2.90;;
46729;SDS011;32476;50.002;11.854;2023-05-29T11:48:47;5.88;;;3.28;;
46729;SDS011;32476;50.002;11.854;2023-05-29T11:51:13;5.53;;;2.65;;
46729;SDS011;32476;50.002;11.854;2023-05-29T11:53:43;10.35;;;2.97;;
46729;SDS011;32476;50.002;11.854;2023-05-29T11:56:13;11.40;;;3.30;;
46729;SDS011;32476;50.002;11.854;2023-05-29T11:58:39;4.05;;;2.70;;
46729;SDS011;32476;50.002;11.854;2023-05-29T12:01:06;7.18;;;2.97;;
46729;SDS011;32476;50.002;11.854;2023-05-29T12:03:37;6.80;;;2.95;;
46729;SDS011;32476;50.002;11.854;2023-05-29T12:06:07;4.78;;;2.78;;
46729;SDS011;32476;50.002;11.854;2023-05-29T12:08:37;9.13;;;2.53;;
46729;SDS011;32476;50.002;11.854;2023-05-29T12:11:04;4.90;;;3.00;;
46729;SDS011;32476;50.002;11.854;2023-05-29T12:13:31;6.75;;;2.60;;
46729;SDS011;32476;50.002;11.854;2023-05-29T12:16:02;7.47;;;2.40;;
46729;SDS011;32476;50.002;11.854;2023-05-29T12:18:30;4.90;;;2.50;;
46729;SDS011;32476;50.002;11.854;2023-05-29T12:21:01;5.55;;;2.83;;
46729;SDS011;32476;50.002;11.854;2023-05-29T12:23:28;3.35;;;2.50;;
46729;SDS011;32476;50.002;11.854;2023-05-29T12:25:55;6.32;;;3.00;;
46729;SDS011;32476;50.002;11.854;2023-05-29T12:28:23;24.20;;;3.30;;
46729;SDS011;32476;50.002;11.854;2023-05-29T12:30:49;5.13;;;2.95;;
46729;SDS011;32476;50.002;11.854;2023-05-29T12:33:24;4.55;;;2.58;;
46729;SDS011;32476;50.002;11.854;2023-05-29T12:36:05;6.90;;;2.88;;
46729;SDS011;32476;50.002;11.854;2023-05-29T12:38:47;6.75;;;2.83;;
46729;SDS011;32476;50.002;11.854;2023-05-29T12:41:29;6.90;;;2.80;;
46729;SDS011;32476;50.002;11.854;2023-05-29T12:44:00;7.03;;;2.80;;
46729;SDS011;32476;50.002;11.854;2023-05-29T12:46:34;9.38;;;2.53;;
46729;SDS011;32476;50.002;11.854;2023-05-29T12:51:47;4.18;;;2.65;;
46729;SDS011;32476;50.002;11.854;2023-05-29T12:54:13;5.57;;;3.10;;
46729;SDS011;32476;50.002;11.854;2023-05-29T12:56:40;4.32;;;2.63;;
46729;SDS011;32476;50.002;11.854;2023-05-29T12:59:09;7.35;;;2.80;;
46729;SDS011;32476;50.002;11.854;2023-05-29T13:01:36;6.63;;;2.88;;
46729;SDS011;32476;50.002;11.854;2023-05-29T13:04:06;9.00;;;2.60;;
46729;SDS011;32476;50.002;11.854;2023-05-29T13:06:34;4.43;;;2.38;;
46729;SDS011;32476;50.002;11.854;2023-05-29T13:09:00;6.28;;;2.70;;
46729;SDS011;32476;50.002;11.854;2023-05-29T13:11:26;8.23;;;2.92;;
46729;SDS011;32476;50.002;11.854;2023-05-29T13:13:53;13.15;;;3.65;;
46729;SDS011;32476;50.002;11.854;2023-05-29T13:16:19;7.45;;;3.40;;
46729;SDS011;32476;50.002;11.854;2023-05-29T13:18:45;4.47;;;2.97;;
46729;SDS011;32476;50.002;11.854;2023-05-29T13:21:13;5.65;;;2.95;;
46729;SDS011;32476;50.002;11.854;2023-05-29T13:23:38;7.07;;;2.60;;
46729;SDS011;32476;50.002;11.854;2023-05-29T13:26:05;4.50;;;2.60;;
46729;SDS011;32476;50.002;11.854;2023-05-29T13:28:32;8.80;;;2.95;;
46729;SDS011;32476;50.002;11.854;2023-05-29T13:30:59;5.88;;;2.80;;
46729;SDS011;32476;50.002;11.854;2023-05-29T13:33:24;6.75;;;2.92;;
46729;SDS011;32476;50.002;11.854;2023-05-29T13:35:52;6.15;;;2.85;;
46729;SDS011;32476;50.002;11.854;2023-05-29T13:38:18;4.85;;;2.80;;
46729;SDS011;32476;50.002;11.854;2023-05-29T13:40:43;6.85;;;2.65;;
46729;SDS011;32476;50.002;11.854;2023-05-29T13:43:11;5.47;;;2.63;;
46729;SDS011;32476;50.002;11.854;2023-05-29T13:45:36;6.50;;;3.10;;
46729;SDS011;32476;50.002;11.854;2023-05-29T13:48:03;3.25;;;2.75;;
46729;SDS011;32476;50.002;11.854;2023-05-29T13:50:30;5.45;;;3.20;;
46729;SDS011;32476;50.002;11.854;2023-05-29T13:52:56;6.50;;;3.20;;
46729;SDS011;32476;50.002;11.854;2023-05-29T13:55:21;8.43;;;3.15;;
46729;SDS011;32476;50.002;11.854;2023-05-29T13:57:49;5.28;;;2.78;;
46729;SDS011;32476;50.002;11.854;2023-05-29T14:00:15;3.40;;;2.67;;
46729;SDS011;32476;50.002;11.854;2023-05-29T14:02:41;7.03;;;3.30;;
46729;SDS011;32476;50.002;11.854;2023-05-29T14:05:08;7.88;;;3.05;;
46729;SDS011;32476;50.002;11.854;2023-05-29T14:07:36;5.30;;;2.75;;
46729;SDS011;32476;50.002;11.854;2023-05-29T14:10:02;8.00;;;3.30;;
46729;SDS011;32476;50.002;11.854;2023-05-29T14:12:30;8.27;;;2.72;;
46729;SDS011;32476;50.002;11.854;2023-05-29T14:14:56;3.15;;;2.60;;
46729;SDS011;32476;50.002;11.854;2023-05-29T14:17:21;4.28;;;3.25;;
46729;SDS011;32476;50.002;11.854;2023-05-29T14:19:49;4.80;;;2.85;;
46729;SDS011;32476;50.002;11.854;2023-05-29T14:22:14;4.53;;;2.78;;
46729;SDS011;32476;50.002;11.854;2023-05-29T14:24:40;5.53;;;2.95;;
46729;SDS011;32476;50.002;11.854;2023-05-29T14:27:08;3.35;;;2.60;;
46729;SDS011;32476;50.002;11.854;2023-05-29T14:29:34;5.97;;;2.33;;
46729;SDS011;32476;50.002;11.854;2023-05-29T14:32:00;6.30;;;2.55;;
46729;SDS011;32476;50.002;11.854;2023-05-29T14:34:27;9.02;;;3.45;;
46729;SDS011;32476;50.002;11.854;2023-05-29T14:36:53;11.45;;;4.90;;
46729;SDS011;32476;50.002;11.854;2023-05-29T14:39:18;9.23;;;3.03;;
46729;SDS011;32476;50.002;11.854;2023-05-29T14:41:46;6.38;;;3.40;;
46729;SDS011;32476;50.002;11.854;2023-05-29T14:44:11;8.48;;;2.88;;
46729;SDS011;32476;50.002;11.854;2023-05-29T14:46:38;6.72;;;2.90;;
46729;SDS011;32476;50.002;11.854;2023-05-29T14:49:05;6.72;;;3.20;;
46729;SDS011;32476;50.002;11.854;2023-05-29T14:51:31;5.45;;;3.30;;
46729;SDS011;32476;50.002;11.854;2023-05-29T14:53:58;5.00;;;3.65;;
46729;SDS011;32476;50.002;11.854;2023-05-29T14:56:25;4.80;;;2.92;;
46729;SDS011;32476;50.002;11.854;2023-05-29T14:58:52;8.00;;;2.80;;
46729;SDS011;32476;50.002;11.854;2023-05-29T15:01:18;7.68;;;2.80;;
46729;SDS011;32476;50.002;11.854;2023-05-29T15:03:45;8.38;;;2.90;;
46729;SDS011;32476;50.002;11.854;2023-05-29T15:06:11;6.80;;;2.60;;
46729;SDS011;32476;50.002;11.854;2023-05-29T15:08:37;6.13;;;3.25;;